createdAt,value
2023-03-26T00:00:54.253Z,99780.72
2023-03-26T00:03:57.831Z,99782.84
2023-03-26T00:07:00.171Z,99765.78
2023-03-26T00:10:03.600Z,99767.13
2023-03-26T00:13:06.327Z,99773.09
2023-03-26T00:16:08.829Z,99771.84
2023-03-26T00:19:11.661Z,99771.63
2023-03-26T00:22:16.983Z,99772.53
2023-03-26T00:25:20.399Z,99779.69
2023-03-26T00:28:23.517Z,99776.84
2023-03-26T00:31:25.837Z,99790.47
2023-03-26T00:34:28.191Z,99779.66
2023-03-26T00:37:30.398Z,99780.69
2023-03-26T00:40:36.741Z,99777.00
2023-03-26T00:43:38.854Z,99772.22
2023-03-26T00:46:41.575Z,99766.72
2023-03-26T00:49:46.783Z,99764.59
2023-03-26T00:52:49.155Z,99741.00
2023-03-26T00:55:51.632Z,99749.56
2023-03-26T00:58:54.244Z,99744.75
2023-03-26T01:01:58.379Z,99733.56
2023-03-26T01:05:04.139Z,99729.25
2023-03-26T01:08:25.619Z,99721.53
2023-03-26T01:11:29.814Z,99729.47
2023-03-26T01:14:31.790Z,99726.44
2023-03-26T01:17:34.318Z,99733.87
2023-03-26T01:20:39.265Z,99729.59
2023-03-26T01:23:44.368Z,99734.22
2023-03-26T01:26:49.408Z,99732.19
2023-03-26T01:29:53.188Z,99732.59
2023-03-26T01:33:02.286Z,99729.88
2023-03-26T01:36:21.207Z,99732.50
2023-03-26T01:39:27.947Z,99737.97
2023-03-26T01:42:30.884Z,99745.81
2023-03-26T01:45:36.060Z,99747.69
2023-03-26T01:48:40.766Z,99752.09
2023-03-26T01:51:42.914Z,99744.13
2023-03-26T01:54:46.713Z,99737.31
2023-03-26T01:57:58.274Z,99743.25
2023-03-26T02:01:06.329Z,99752.44
2023-03-26T02:04:22.662Z,99748.50
2023-03-26T02:07:44.614Z,99758.41
2023-03-26T02:10:49.018Z,99762.00
2023-03-26T02:13:51.817Z,99771.91
2023-03-26T02:16:53.896Z,99773.56
2023-03-26T02:19:57.072Z,99773.78
2023-03-26T02:22:59.791Z,99773.47
2023-03-26T02:26:05.225Z,99776.50
2023-03-26T02:29:07.765Z,99776.00
2023-03-26T02:32:13.781Z,99772.41
2023-03-26T02:35:16.055Z,99772.25
2023-03-26T02:38:19.500Z,99767.00
2023-03-26T02:41:21.595Z,99759.34
2023-03-26T02:44:24.450Z,99762.41
2023-03-26T02:47:33.945Z,99756.56
2023-03-26T02:50:39.425Z,99746.44
2023-03-26T02:53:43.995Z,99749.06
2023-03-26T02:56:47.159Z,99742.03
2023-03-26T02:59:50.452Z,99729.03
2023-03-26T03:02:57.852Z,99751.59
2023-03-26T03:06:01.250Z,99743.41
2023-03-26T03:09:05.225Z,99751.19
2023-03-26T03:12:08.631Z,99741.59
2023-03-26T03:15:11.373Z,99742.03
2023-03-26T03:18:13.414Z,99752.44
2023-03-26T03:21:15.798Z,99750.91
2023-03-26T03:24:18.580Z,99742.41
2023-03-26T03:27:22.283Z,99750.66
2023-03-26T03:30:24.605Z,99748.06
2023-03-26T03:33:29.104Z,99752.69
2023-03-26T03:36:33.109Z,99741.25
2023-03-26T03:39:36.232Z,99748.16
2023-03-26T03:42:38.849Z,99742.81
2023-03-26T03:45:41.437Z,99738.56
2023-03-26T03:48:48.294Z,99754.22
2023-03-26T03:51:50.947Z,99758.41
2023-03-26T03:54:54.185Z,99765.03
2023-03-26T03:57:58.289Z,99767.91
2023-03-26T04:01:04.439Z,99769.16
2023-03-26T04:04:08.617Z,99770.72
2023-03-26T04:07:12.855Z,99773.31
2023-03-26T04:10:17.137Z,99777.34
2023-03-26T04:13:22.514Z,99779.09
2023-03-26T04:16:25.641Z,99770.81
2023-03-26T04:19:27.891Z,99767.47
2023-03-26T04:22:34.593Z,99767.66
2023-03-26T04:25:37.738Z,99771.56
2023-03-26T04:28:48.911Z,99765.31
2023-03-26T04:31:58.600Z,99760.75
2023-03-26T04:35:03.945Z,99760.38
2023-03-26T04:38:06.955Z,99773.13
2023-03-26T04:41:11.396Z,99758.75
2023-03-26T04:44:17.202Z,99771.94
2023-03-26T04:47:21.004Z,99769.31
2023-03-26T04:50:23.153Z,99772.28
2023-03-26T04:53:26.334Z,99768.94
2023-03-26T04:56:39.113Z,99775.38
2023-03-26T04:59:42.984Z,99774.63
2023-03-26T05:02:45.906Z,99781.44
2023-03-26T05:05:49.659Z,99777.25
2023-03-26T05:08:51.890Z,99773.06
2023-03-26T05:11:55.580Z,99773.50
2023-03-26T05:15:00.775Z,99773.47
2023-03-26T05:18:04.116Z,99763.03
2023-03-26T05:21:06.749Z,99777.91
2023-03-26T05:24:09.252Z,99766.38
2023-03-26T05:27:16.854Z,99770.59
2023-03-26T05:30:20.760Z,99765.50
2023-03-26T05:33:24.573Z,99769.56
2023-03-26T05:36:28.489Z,99770.22
2023-03-26T05:39:33.087Z,99763.91
2023-03-26T05:42:36.199Z,99770.78
2023-03-26T05:45:39.537Z,99775.25
2023-03-26T05:48:43.526Z,99769.94
2023-03-26T05:51:45.792Z,99780.06
2023-03-26T05:54:49.122Z,99774.31
2023-03-26T05:57:54.429Z,99775.94
2023-03-26T06:01:05.547Z,99770.66
2023-03-26T06:04:11.634Z,99769.78
2023-03-26T06:07:15.024Z,99772.97
2023-03-26T06:10:19.071Z,99774.69
2023-03-26T06:13:21.546Z,99777.47
2023-03-26T06:16:26.388Z,99766.88
2023-03-26T06:19:29.676Z,99771.69
2023-03-26T06:22:32.552Z,99766.13
2023-03-26T06:25:38.521Z,99757.13
2023-03-26T06:28:41.336Z,99768.28
2023-03-26T06:31:44.902Z,99768.94
2023-03-26T06:34:48.050Z,99774.41
2023-03-26T06:37:50.356Z,99777.94
2023-03-26T06:40:53.377Z,99772.59
2023-03-26T06:43:56.671Z,99777.31
2023-03-26T06:46:59.297Z,99778.88
2023-03-26T06:50:04.412Z,99769.94
2023-03-26T06:53:08.631Z,99772.13
2023-03-26T06:56:10.696Z,99774.44
2023-03-26T06:59:13.368Z,99769.50
2023-03-26T07:02:26.493Z,99775.19
2023-03-26T07:05:42.903Z,99775.44
2023-03-26T07:08:45.304Z,99774.78
2023-03-26T07:11:49.422Z,99781.59
2023-03-26T07:14:52.651Z,99782.16
2023-03-26T07:17:56.687Z,99775.28
2023-03-26T07:20:59.167Z,99784.38
2023-03-26T07:24:04.674Z,99782.34
2023-03-26T07:27:17.717Z,99790.03
2023-03-26T07:30:26.226Z,99784.97
2023-03-26T07:33:46.869Z,99789.66
2023-03-26T07:36:57.217Z,99797.16
2023-03-26T07:40:09.395Z,99796.09
2023-03-26T07:43:17.730Z,99798.19
2023-03-26T07:46:25.964Z,99792.22
2023-03-26T07:49:29.813Z,99800.00
2023-03-26T07:52:32.673Z,99791.97
2023-03-26T07:55:40.369Z,99788.63
2023-03-26T07:58:50.772Z,99782.13
2023-03-26T08:02:12.482Z,99796.81
2023-03-26T08:05:30.417Z,99794.25
2023-03-26T08:08:56.936Z,99790.09
2023-03-26T08:12:05.960Z,99791.22
2023-03-26T08:15:21.237Z,99778.66
2023-03-26T08:18:35.153Z,99773.75
2023-03-26T08:21:38.106Z,99782.41
2023-03-26T08:24:47.608Z,99775.16
2023-03-26T08:28:01.874Z,99768.59
2023-03-26T08:31:05.435Z,99773.31
2023-03-26T08:34:10.649Z,99766.78
2023-03-26T08:37:13.073Z,99773.00
2023-03-26T08:40:19.695Z,99768.88
2023-03-26T08:43:42.304Z,99762.03
2023-03-26T08:46:59.680Z,99759.66
2023-03-26T08:50:17.357Z,99763.78
2023-03-26T08:53:25.498Z,99757.78
2023-03-26T08:56:47.388Z,99752.84
2023-03-26T08:59:49.532Z,99751.84
2023-03-26T09:02:51.752Z,99749.84
2023-03-26T09:06:13.024Z,99746.09
2023-03-26T09:09:24.425Z,99747.91
2023-03-26T09:12:54.625Z,99735.94
2023-03-26T09:16:15.612Z,99747.56
2023-03-26T09:19:20.841Z,99740.22
2023-03-26T09:22:26.364Z,99736.72
2023-03-26T09:25:47.177Z,99724.50
2023-03-26T09:28:55.657Z,99724.19
2023-03-26T09:31:59.435Z,99716.16
2023-03-26T09:35:21.618Z,99719.13
2023-03-26T09:38:33.076Z,99715.81
2023-03-26T09:41:41.578Z,99713.75
2023-03-26T09:45:01.027Z,99708.94
2023-03-26T09:48:18.885Z,99697.00
2023-03-26T09:51:33.252Z,99694.50
2023-03-26T09:54:44.769Z,99692.34
2023-03-26T09:57:59.780Z,99688.50
2023-03-26T10:01:05.636Z,99680.47
2023-03-26T10:04:33.186Z,99676.19
2023-03-26T10:07:41.543Z,99671.72
2023-03-26T10:10:43.760Z,99655.19
2023-03-26T10:14:01.270Z,99662.75
2023-03-26T10:17:05.008Z,99660.53
2023-03-26T10:20:22.543Z,99655.31
2023-03-26T10:23:43.613Z,99660.66
2023-03-26T10:27:10.220Z,99683.66
2023-03-26T10:30:31.652Z,99712.81
2023-03-26T10:33:50.656Z,99713.88
2023-03-26T10:37:11.720Z,99686.88
2023-03-26T10:40:13.736Z,99677.75
2023-03-26T10:43:34.763Z,99665.53
2023-03-26T10:46:55.630Z,99662.53
2023-03-26T10:50:17.231Z,99641.50
2023-03-26T10:53:35.880Z,99630.94
2023-03-26T10:56:40.803Z,99630.59
2023-03-26T10:59:42.892Z,99628.03
2023-03-26T11:02:56.358Z,99613.78
2023-03-26T11:06:12.202Z,99612.25
2023-03-26T11:09:20.770Z,99607.88
2023-03-26T11:12:29.176Z,99599.66
2023-03-26T11:15:47.679Z,99595.13
2023-03-26T11:18:54.670Z,99577.06
2023-03-26T11:22:15.775Z,99578.47
2023-03-26T11:25:26.975Z,99559.16
2023-03-26T11:29:03.822Z,99559.03
2023-03-26T11:32:26.094Z,99552.37
2023-03-26T11:35:39.636Z,99554.00
2023-03-26T11:38:44.944Z,99548.44
2023-03-26T11:41:49.352Z,99537.75
2023-03-26T11:45:00.816Z,99534.78
2023-03-26T11:48:27.739Z,99522.75
2023-03-26T11:51:33.940Z,99530.25
2023-03-26T11:54:37.506Z,99510.97
2023-03-26T11:57:43.120Z,99507.03
2023-03-26T12:00:45.430Z,99492.75
2023-03-26T12:03:58.765Z,99480.25
2023-03-26T12:07:27.008Z,99472.72
2023-03-26T12:10:29.422Z,99468.28
2023-03-26T12:13:35.477Z,99468.84
2023-03-26T12:16:37.879Z,99448.16
2023-03-26T12:19:41.458Z,99450.16
2023-03-26T12:22:44.324Z,99449.00
2023-03-26T12:26:04.147Z,99436.06
2023-03-26T12:29:11.032Z,99428.50
2023-03-26T12:32:13.884Z,99414.94
2023-03-26T12:35:27.612Z,99422.22
2023-03-26T12:38:40.707Z,99407.63
2023-03-26T12:43:51.643Z,99400.78
2023-03-26T12:45:06.792Z,99398.41
2023-03-26T12:48:15.639Z,99381.00
2023-03-26T12:51:30.192Z,99384.50
2023-03-26T12:54:33.183Z,99382.94
2023-03-26T12:57:40.473Z,99382.47
2023-03-26T13:00:48.748Z,99376.25
2023-03-26T13:03:56.826Z,99372.78
2023-03-26T13:07:06.323Z,99365.16
2023-03-26T13:10:32.766Z,99358.22
2023-03-26T13:13:54.280Z,99345.37
2023-03-26T13:17:08.345Z,99349.34
2023-03-26T13:20:15.906Z,99341.47
2023-03-26T13:23:18.114Z,99335.38
2023-03-26T13:26:29.382Z,99325.16
2023-03-26T13:29:31.409Z,99319.66
2023-03-26T13:32:39.767Z,99316.16
2023-03-26T13:36:22.377Z,99314.84
2023-03-26T13:39:26.154Z,99306.91
2023-03-26T13:42:28.836Z,99294.16
2023-03-26T13:45:54.011Z,99292.19
2023-03-26T13:49:07.935Z,99297.50
2023-03-26T13:52:19.296Z,99282.41
2023-03-26T13:55:40.159Z,99290.31
2023-03-26T13:59:01.303Z,99283.03
2023-03-26T14:02:20.397Z,99278.50
2023-03-26T14:05:26.224Z,99262.78
2023-03-26T14:08:36.176Z,99249.41
2023-03-26T14:11:44.337Z,99244.81
2023-03-26T14:15:00.235Z,99240.63
2023-03-26T14:18:06.155Z,99233.72
2023-03-26T14:21:20.422Z,99239.37
2023-03-26T14:24:28.404Z,99249.16
2023-03-26T14:27:45.803Z,99230.03
2023-03-26T14:31:05.900Z,99240.88
2023-03-26T14:34:14.162Z,99232.59
2023-03-26T14:37:38.820Z,99225.88
2023-03-26T14:40:59.853Z,99222.41
2023-03-26T14:44:02.143Z,99211.38
2023-03-26T14:47:07.878Z,99217.69
2023-03-26T14:50:20.509Z,99214.44
2023-03-26T14:53:29.984Z,99226.91
2023-03-26T14:56:32.390Z,99208.34
2023-03-26T14:59:52.911Z,99203.72
2023-03-26T15:03:14.259Z,99188.62
2023-03-26T15:06:31.970Z,99191.50
2023-03-26T15:09:46.256Z,99170.78
2023-03-26T15:13:00.448Z,99175.38
2023-03-26T15:16:21.739Z,99161.19
2023-03-26T15:19:42.632Z,99164.53
2023-03-26T15:22:45.368Z,99165.69
2023-03-26T15:26:07.744Z,99156.94
2023-03-26T15:29:30.035Z,99150.31
2023-03-26T15:32:41.817Z,99143.00
2023-03-26T15:35:44.178Z,99134.06
2023-03-26T15:39:18.591Z,99137.72
2023-03-26T15:42:29.693Z,99132.47
2023-03-26T15:45:36.362Z,99138.91
2023-03-26T15:48:42.304Z,99135.56
2023-03-26T15:51:47.081Z,99124.66
2023-03-26T15:55:01.909Z,99134.09
2023-03-26T15:58:09.898Z,99137.44
2023-03-26T16:01:34.045Z,99121.06
2023-03-26T16:05:16.278Z,99111.13
2023-03-26T16:08:21.176Z,99109.31
2023-03-26T16:11:42.169Z,99100.41
2023-03-26T16:14:44.162Z,99096.75
2023-03-26T16:18:05.579Z,99084.31
2023-03-26T16:21:31.619Z,99084.00
2023-03-26T16:24:37.746Z,99075.50
2023-03-26T16:27:39.767Z,99067.75
2023-03-26T16:30:42.303Z,99056.97
2023-03-26T16:33:49.904Z,99052.12
2023-03-26T16:36:54.034Z,99060.50
2023-03-26T16:40:15.942Z,99050.88
2023-03-26T16:43:35.820Z,99048.22
2023-03-26T16:46:52.082Z,99057.44
2023-03-26T16:50:13.919Z,99056.37
2023-03-26T16:53:24.805Z,99057.06
2023-03-26T16:56:31.161Z,99066.28
2023-03-26T17:00:04.603Z,99064.31
2023-03-26T17:03:15.548Z,99059.28
2023-03-26T17:06:17.682Z,99059.53
2023-03-26T17:09:25.748Z,99058.44
2023-03-26T17:12:32.569Z,99062.50
2023-03-26T17:15:41.183Z,99058.50
2023-03-26T17:18:43.667Z,99054.59
2023-03-26T17:22:15.507Z,99054.19
2023-03-26T17:25:21.248Z,99056.75
2023-03-26T17:29:03.100Z,99059.91
2023-03-26T17:32:12.435Z,99062.97
2023-03-26T17:35:15.413Z,99056.22
2023-03-26T17:38:17.434Z,99063.13
2023-03-26T17:41:38.722Z,99057.00
2023-03-26T17:44:43.445Z,99056.28
2023-03-26T17:47:50.410Z,99055.87
2023-03-26T17:50:55.509Z,99052.41
2023-03-26T17:53:58.659Z,99054.44
2023-03-26T17:57:02.956Z,99057.22
2023-03-26T18:00:11.630Z,99053.38
2023-03-26T18:03:16.651Z,99055.34
2023-03-26T18:06:34.170Z,99041.88
2023-03-26T18:09:55.089Z,99052.25
2023-03-26T18:13:00.411Z,99055.03
2023-03-26T18:16:09.501Z,99050.97
2023-03-26T18:19:19.052Z,99044.72
2023-03-26T18:22:30.309Z,99042.63
2023-03-26T18:25:34.075Z,99046.25
2023-03-26T18:28:40.503Z,99044.56
2023-03-26T18:31:43.082Z,99044.03
2023-03-26T18:34:49.901Z,99043.75
2023-03-26T18:37:54.563Z,99046.44
2023-03-26T18:40:56.916Z,99033.69
2023-03-26T18:44:04.095Z,99029.69
2023-03-26T18:47:07.141Z,99016.69
2023-03-26T18:50:18.666Z,99015.47
2023-03-26T18:53:22.596Z,99014.09
2023-03-26T18:56:52.702Z,99011.94
2023-03-26T18:59:57.429Z,98997.94
2023-03-26T19:03:07.698Z,98989.78
2023-03-26T19:06:12.451Z,98994.72
2023-03-26T19:09:30.423Z,98985.44
2023-03-26T19:12:35.651Z,98984.31
2023-03-26T19:15:38.265Z,98978.34
2023-03-26T19:18:40.721Z,98970.91
2023-03-26T19:21:46.724Z,98982.44
2023-03-26T19:24:50.384Z,98980.41
2023-03-26T19:27:52.606Z,98971.44
2023-03-26T19:30:57.395Z,98966.09
2023-03-26T19:34:01.814Z,98958.31
2023-03-26T19:37:16.193Z,98959.41
2023-03-26T19:40:29.736Z,98952.97
2023-03-26T19:43:31.776Z,98942.22
2023-03-26T19:46:52.822Z,98936.41
2023-03-26T19:49:57.630Z,98928.44
2023-03-26T19:53:16.594Z,98917.91
2023-03-26T19:56:21.117Z,98920.25
2023-03-26T19:59:23.921Z,98910.31
2023-03-26T20:02:26.575Z,98898.72
2023-03-26T20:05:31.823Z,98890.53
2023-03-26T20:08:33.926Z,98894.00
2023-03-26T20:11:38.746Z,98875.75
2023-03-26T20:14:43.208Z,98868.81
2023-03-26T20:17:47.054Z,98862.72
2023-03-26T20:20:50.429Z,98858.22
2023-03-26T20:23:55.805Z,98847.28
2023-03-26T20:26:57.998Z,98848.41
2023-03-26T20:30:00.325Z,98832.34
2023-03-26T20:33:13.003Z,98835.44
2023-03-26T20:36:33.591Z,98829.63
2023-03-26T20:39:36.978Z,98829.94
2023-03-26T20:42:39.307Z,98821.91
2023-03-26T20:45:41.649Z,98817.31
2023-03-26T20:48:45.564Z,98817.47
2023-03-26T20:51:48.847Z,98819.56
2023-03-26T20:54:51.922Z,98812.50
2023-03-26T20:57:55.119Z,98814.34
2023-03-26T21:01:00.357Z,98813.59
2023-03-26T21:04:04.311Z,98801.62
2023-03-26T21:07:17.679Z,98803.03
2023-03-26T21:10:20.879Z,98801.22
2023-03-26T21:13:26.471Z,98795.78
2023-03-26T21:16:28.673Z,98796.69
2023-03-26T21:19:31.411Z,98797.47
2023-03-26T21:22:40.853Z,98796.37
2023-03-26T21:25:48.652Z,98806.59
2023-03-26T21:28:50.831Z,98818.84
2023-03-26T21:31:54.932Z,98832.44
2023-03-26T21:34:59.020Z,98826.28
2023-03-26T21:38:04.140Z,98833.34
2023-03-26T21:41:06.352Z,98833.16
2023-03-26T21:44:08.736Z,98831.31
2023-03-26T21:47:11.247Z,98838.38
2023-03-26T21:50:15.501Z,98836.88
2023-03-26T21:53:17.566Z,98842.56
2023-03-26T21:56:29.944Z,98845.59
2023-03-26T21:59:52.476Z,98834.72
2023-03-26T22:03:18.257Z,98833.69
2023-03-26T22:06:28.341Z,98829.03
2023-03-26T22:09:36.545Z,98835.41
2023-03-26T22:12:39.578Z,98827.94
2023-03-26T22:15:41.624Z,98826.47
2023-03-26T22:18:44.156Z,98825.22
2023-03-26T22:21:46.118Z,98825.97
2023-03-26T22:24:48.502Z,98831.09
2023-03-26T22:27:51.087Z,98831.50
2023-03-26T22:30:53.632Z,98832.75
2023-03-26T22:33:56.024Z,98826.09
2023-03-26T22:36:58.451Z,98818.09
2023-03-26T22:40:01.182Z,98816.31
2023-03-26T22:43:03.494Z,98815.06
2023-03-26T22:46:06.838Z,98804.16
2023-03-26T22:49:09.234Z,98800.69
2023-03-26T22:52:12.120Z,98793.12
2023-03-26T22:55:15.684Z,98786.75
2023-03-26T22:58:32.704Z,98781.34
2023-03-26T23:01:35.633Z,98777.91
2023-03-26T23:04:37.827Z,98773.34
2023-03-26T23:07:40.246Z,98766.03
2023-03-26T23:10:42.649Z,98767.81
2023-03-26T23:13:46.031Z,98769.19
2023-03-26T23:16:48.099Z,98761.34
2023-03-26T23:19:50.425Z,98758.72
2023-03-26T23:22:52.592Z,98751.13
2023-03-26T23:25:56.081Z,98754.69
2023-03-26T23:28:58.057Z,98754.41
2023-03-26T23:32:00.458Z,98749.75
2023-03-26T23:35:02.403Z,98747.38
2023-03-26T23:38:06.754Z,98739.38
2023-03-26T23:41:08.711Z,98733.06
2023-03-26T23:44:14.333Z,98719.53
2023-03-26T23:47:17.190Z,98720.06
2023-03-26T23:50:19.508Z,98704.44
2023-03-26T23:53:25.338Z,98695.34
2023-03-26T23:56:29.623Z,98690.16
2023-03-26T23:59:32.368Z,98696.47
